Time,TemperatureF,DewpointF,PressureIn,WindDirection,WindDirectionDegrees,WindSpeedMPH,WindSpeedGustMPH,Humidity,HourlyPrecipIn,Conditions,Clouds,dailyrainin,SoftwareType,DateUTC
2013-04-09 00:00:00,66.4,38.9,29.95,West,261,4.0,7.6,36,0.00,,---,0.00,VWS V12.08,2013-04-09 04:00:00,
2013-04-09 00:20:00,66.2,38.7,29.95,SSW,195,0.0,8.1,36,0.00,,---,0.00,VWS V12.08,2013-04-09 04:20:00,
2013-04-09 00:40:00,65.8,39.1,29.95,SSE,163,4.9,9.6,37,0.00,,---,0.00,VWS V12.08,2013-04-09 04:40:00,
2013-04-09 01:00:00,65.8,39.1,29.95,WSW,250,0.0,6.3,37,0.00,,---,0.00,VWS V12.08,2013-04-09 05:00:00,
2013-04-09 01:20:00,65.5,38.8,29.95,SSE,168,0.0,7.2,37,0.00,,---,0.00,VWS V12.08,2013-04-09 05:20:00,
2013-04-09 01:40:00,65.5,38.8,29.92,WSW,241,3.1,6.3,37,0.00,,---,0.00,VWS V12.08,2013-04-09 05:40:00,
2013-04-09 02:20:00,66.9,39.3,29.92,WNW,284,4.0,10.5,36,0.00,,---,0.00,VWS V12.08,2013-04-09 06:20:00,
2013-04-09 02:40:00,66.9,39.3,29.92,West,271,2.7,9.6,36,0.00,,---,0.00,VWS V12.08,2013-04-09 06:40:00,
2013-04-09 03:00:00,66.6,39.0,29.92,West,263,3.1,7.6,36,0.00,,---,0.00,VWS V12.08,2013-04-09 07:00:00,
2013-04-09 03:20:00,65.7,39.0,29.92,SW,231,4.9,6.3,37,0.00,,---,0.00,VWS V12.08,2013-04-09 07:20:00,
2013-04-09 03:40:00,64.9,38.3,29.92,WNW,289,0.0,6.3,37,0.00,,---,0.00,VWS V12.08,2013-04-09 07:40:00,
2013-04-09 04:20:00,61.2,35.7,29.92,WSW,241,0.0,0.0,38,0.00,,---,0.00,VWS V12.08,2013-04-09 08:20:00,
2013-04-09 05:00:00,58.5,34.0,29.95,SW,227,0.0,0.0,40,0.00,,---,0.00,VWS V12.08,2013-04-09 09:00:00,
2013-04-09 05:20:00,57.7,33.3,29.95,WSW,249,0.0,3.1,40,0.00,,---,0.00,VWS V12.08,2013-04-09 09:20:00,
2013-04-09 05:40:00,57.2,32.9,29.95,WSW,249,0.0,0.0,40,0.00,,---,0.00,VWS V12.08,2013-04-09 09:40:00,
2013-04-09 06:40:00,55.6,32.1,29.95,WSW,249,0.0,0.0,41,0.00,,---,0.00,VWS V12.08,2013-04-09 10:40:00,
2013-04-09 07:00:00,55.4,31.9,29.98,WSW,248,0.0,0.0,41,0.00,,---,0.00,VWS V12.08,2013-04-09 11:00:00,
2013-04-09 07:20:00,55.4,31.9,29.98,WSW,248,0.0,0.0,41,0.00,,---,0.00,VWS V12.08,2013-04-09 11:20:00,
2013-04-09 07:40:00,56.3,33.4,29.98,WSW,249,0.0,0.0,42,0.00,,---,0.00,VWS V12.08,2013-04-09 11:40:00,
2013-04-09 08:20:00,60.6,35.9,29.98,WSW,249,0.0,0.0,40,0.00,,---,0.00,VWS V12.08,2013-04-09 12:20:00,
2013-04-09 08:40:00,64.6,38.0,29.98,West,265,0.0,0.0,37,0.00,,---,0.00,VWS V12.08,2013-04-09 12:40:00,
2013-04-09 09:00:00,67.8,40.1,29.98,NW,304,4.0,6.3,36,0.00,,---,0.00,VWS V12.08,2013-04-09 13:00:00,
2013-04-09 09:20:00,70.2,41.4,29.98,West,261,2.7,12.3,35,0.00,,---,0.00,VWS V12.08,2013-04-09 13:20:00,
2013-04-09 09:40:00,71.8,42.8,29.98,WNW,303,8.1,12.8,35,0.00,,---,0.00,VWS V12.08,2013-04-09 13:40:00,
2013-04-09 10:20:00,73.4,43.4,30.01,WSW,241,6.3,15.0,34,0.00,,---,0.00,VWS V12.08,2013-04-09 14:20:00,
2013-04-09 10:40:00,75.0,44.8,29.98,West,280,12.8,22.4,34,0.00,,---,0.00,VWS V12.08,2013-04-09 14:40:00,
2013-04-09 11:00:00,75.7,45.5,29.98,WNW,288,6.3,17.4,34,0.00,,---,0.00,VWS V12.08,2013-04-09 15:00:00,
2013-04-09 11:20:00,75.9,45.6,29.98,WSW,254,8.3,23.3,34,0.00,,---,0.00,VWS V12.08,2013-04-09 15:20:00,
2013-04-09 11:40:00,76.8,46.4,29.98,WSW,241,9.6,19.2,34,0.00,,---,0.00,VWS V12.08,2013-04-09 15:40:00,
2013-04-09 12:20:00,78.6,48.0,29.98,WNW,291,7.6,17.4,34,0.00,,---,0.00,VWS V12.08,2013-04-09 16:20:00,
2013-04-09 12:40:00,79.3,47.8,29.98,West,274,11.9,15.0,33,0.00,,---,0.00,VWS V12.08,2013-04-09 16:40:00,
2013-04-09 13:00:00,80.1,48.4,29.98,NNW,348,5.4,15.9,33,0.00,,---,0.00,VWS V12.08,2013-04-09 17:00:00,
2013-04-09 13:20:00,80.1,48.4,29.98,West,262,8.1,15.0,33,0.00,,---,0.00,VWS V12.08,2013-04-09 17:20:00,
2013-04-09 13:40:00,80.1,48.4,29.98,WNW,301,9.6,15.4,33,0.00,,---,0.00,VWS V12.08,2013-04-09 17:40:00,
2013-04-09 14:20:00,80.2,48.5,29.95,NW,314,5.4,12.8,33,0.00,,---,0.00,VWS V12.08,2013-04-09 18:20:00,
2013-04-09 14:40:00,82.4,49.5,29.95,WNW,291,10.5,15.9,32,0.00,,---,0.00,VWS V12.08,2013-04-09 18:40:00,
2013-04-09 15:00:00,82.8,49.8,29.95,West,271,5.4,17.4,32,0.00,,---,0.00,VWS V12.08,2013-04-09 19:00:00,
2013-04-09 15:20:00,83.5,50.5,29.95,NW,305,4.0,12.8,32,0.00,,---,0.00,VWS V12.08,2013-04-09 19:20:00,
2013-04-09 15:40:00,83.1,50.2,29.95,WNW,284,5.4,12.8,32,0.00,,---,0.00,VWS V12.08,2013-04-09 19:40:00,
2013-04-09 16:20:00,83.1,50.2,29.92,WNW,291,8.1,10.1,32,0.00,,---,0.00,VWS V12.08,2013-04-09 20:20:00,
2013-04-09 16:40:00,83.7,50.6,29.92,West,263,5.4,11.4,32,0.00,,---,0.00,VWS V12.08,2013-04-09 20:40:00,
2013-04-09 17:00:00,83.5,50.5,29.92,North,353,2.7,10.5,32,0.00,,---,0.00,VWS V12.08,2013-04-09 21:00:00,
2013-04-09 17:20:00,83.5,50.5,29.92,WNW,282,4.9,11.0,32,0.00,,---,0.00,VWS V12.08,2013-04-09 21:20:00,
2013-04-09 17:40:00,83.1,50.2,29.92,WSW,250,2.7,9.6,32,0.00,,---,0.00,VWS V12.08,2013-04-09 21:40:00,
2013-04-09 18:20:00,81.5,49.7,29.92,West,268,4.0,8.3,33,0.00,,---,0.00,VWS V12.08,2013-04-09 22:20:00,
2013-04-09 18:40:00,80.8,49.0,29.92,WSW,257,2.7,11.0,33,0.00,,---,0.00,VWS V12.08,2013-04-09 22:40:00,
2013-04-09 19:00:00,79.9,48.2,29.92,West,266,0.0,8.7,33,0.00,,---,0.00,VWS V12.08,2013-04-09 23:00:00,
2013-04-09 19:20:00,78.6,48.0,29.92,WSW,257,0.0,5.8,34,0.00,,---,0.00,VWS V12.08,2013-04-09 23:20:00,
2013-04-09 19:40:00,76.3,46.0,29.92,WSW,256,0.0,0.0,34,0.00,,---,0.00,VWS V12.08,2013-04-09 23:40:00,
2013-04-09 20:00:00,73.8,43.8,29.92,WSW,256,0.0,0.0,34,0.00,,---,0.00,VWS V12.08,2013-04-10 00:00:00,
2013-04-09 20:20:00,71.6,42.7,29.92,WSW,256,0.0,0.0,35,0.00,,---,0.00,VWS V12.08,2013-04-10 00:20:00,
2013-04-09 20:40:00,70.0,41.2,29.92,WSW,255,0.0,0.0,35,0.00,,---,0.00,VWS V12.08,2013-04-10 00:40:00,
2013-04-09 21:00:00,68.7,40.9,29.95,WSW,256,0.0,0.0,36,0.00,,---,0.00,VWS V12.08,2013-04-10 01:00:00,
2013-04-09 21:20:00,67.1,39.5,29.95,WSW,256,0.0,0.0,36,0.00,,---,0.00,VWS V12.08,2013-04-10 01:20:00,
2013-04-09 21:40:00,67.3,39.7,29.95,WSW,256,0.0,0.0,36,0.00,,---,0.00,VWS V12.08,2013-04-10 01:40:00,
2013-04-09 22:20:00,67.3,39.7,29.92,SSE,159,0.0,4.0,36,0.00,,---,0.00,VWS V12.08,2013-04-10 02:20:00,
2013-04-09 22:40:00,69.8,41.1,29.92,SSW,202,2.7,5.4,35,0.00,,---,0.00,VWS V12.08,2013-04-10 02:40:00,
2013-04-09 23:00:00,71.2,42.4,29.89,WSW,246,3.6,5.8,35,0.00,,---,0.00,VWS V12.08,2013-04-10 03:00:00,
2013-04-09 23:20:00,71.1,42.2,29.89,WNW,297,0.0,5.4,35,0.00,,---,0.00,VWS V12.08,2013-04-10 03:20:00,
2013-04-09 23:40:00,71.2,42.4,29.89,SSW,207,2.7,6.3,35,0.00,,---,0.00,VWS V12.08,2013-04-10 03:40:00,